Time;durP1;ratioP1;P1;durP2;ratioP2;P2;SDS_P1;SDS_P2;PMS_P1;PMS_P2;Temp;Humidity;BMP_temperature;BMP_pressure;BME280_temperature;BME280_humidity;BME280_pressure;Samples;Min_cycle;Max_cycle;Signal;HPM_P1;HPM_P2
2024/04/07 00:00:52;;;;;;;5.13;3.90;;;15.50;99.90;;;;;;5032421;28;20601;-88
2024/04/07 00:03:19;;;;;;;5.72;3.08;;;15.50;99.90;;;;;;5033029;28;20206;-88
2024/04/07 00:05:51;;;;;;;6.22;3.60;;;15.50;99.90;;;;;;5032675;28;20210;-88
2024/04/07 00:08:18;;;;;;;8.38;3.17;;;15.50;99.90;;;;;;5032090;28;20194;-88
2024/04/07 00:10:44;;;;;;;4.72;2.72;;;15.60;99.90;;;;;;5038676;28;20226;-88
2024/04/07 00:13:10;;;;;;;6.13;3.40;;;15.60;99.90;;;;;;5039009;28;20229;-88
2024/04/07 00:15:37;;;;;;;5.60;2.78;;;15.60;99.90;;;;;;5035286;28;20220;-88
2024/04/07 00:18:05;;;;;;;5.68;3.17;;;15.60;99.90;;;;;;5030964;28;20213;-88
2024/04/07 00:20:31;;;;;;;8.50;2.92;;;15.60;99.90;;;;;;5036516;28;20236;-88
2024/04/07 00:22:57;;;;;;;9.18;2.90;;;15.60;99.90;;;;;;5032790;28;20206;-88
2024/04/07 00:25:23;;;;;;;6.43;2.42;;;15.60;99.90;;;;;;5032076;28;20561;-89
2024/04/07 00:27:51;;;;;;;4.80;3.28;;;15.60;99.90;;;;;;5032203;28;20656;-89
2024/04/07 00:30:17;;;;;;;5.75;3.33;;;15.70;99.90;;;;;;5034185;28;20220;-89
2024/04/07 00:32:45;;;;;;;5.35;2.97;;;15.70;99.90;;;;;;5038007;28;20310;-89
2024/04/07 00:35:11;;;;;;;6.85;3.05;;;15.70;99.90;;;;;;5036559;28;20216;-89
2024/04/07 00:37:37;;;;;;;4.63;3.10;;;15.70;99.90;;;;;;5032240;28;20325;-89
2024/04/07 00:40:04;;;;;;;3.78;3.10;;;15.70;99.90;;;;;;5032146;28;20241;-89
2024/04/07 00:42:31;;;;;;;4.95;2.97;;;15.70;99.90;;;;;;5032366;28;20217;-89
2024/04/07 00:44:57;;;;;;;4.47;3.30;;;15.70;99.90;;;;;;5032282;28;20217;-89
2024/04/07 00:47:24;;;;;;;8.98;3.30;;;15.70;99.90;;;;;;5032246;28;20206;-88
2024/04/07 00:49:51;;;;;;;7.95;3.05;;;15.70;99.90;;;;;;5034273;28;20206;-89
2024/04/07 00:52:18;;;;;;;4.25;3.20;;;15.70;99.90;;;;;;5032984;28;20230;-88
2024/04/07 00:54:44;;;;;;;6.95;2.80;;;15.70;99.90;;;;;;5036982;28;20205;-87
2024/04/07 00:57:12;;;;;;;5.15;3.10;;;15.70;99.90;;;;;;5036303;28;20241;-87
2024/04/07 00:59:38;;;;;;;5.20;3.28;;;15.70;99.90;;;;;;5031707;28;20222;-88
2024/04/07 01:02:05;;;;;;;6.43;2.90;;;15.70;99.90;;;;;;5033823;28;20232;-87
2024/04/07 01:04:31;;;;;;;4.82;3.10;;;15.70;99.90;;;;;;5033318;28;20210;-88
2024/04/07 01:06:59;;;;;;;4.70;2.92;;;15.80;99.90;;;;;;5031519;28;20208;-88
2024/04/07 01:09:26;;;;;;;8.27;3.22;;;15.70;99.90;;;;;;5033501;28;20585;-87
2024/04/07 01:11:54;;;;;;;4.88;3.10;;;15.80;99.90;;;;;;5031563;28;20257;-87
2024/04/07 01:14:20;;;;;;;4.05;2.90;;;15.80;99.90;;;;;;5031965;28;20217;-87
2024/04/07 01:16:47;;;;;;;4.60;2.63;;;15.80;99.90;;;;;;5031861;28;20289;-87
2024/04/07 01:19:12;;;;;;;7.85;3.00;;;15.90;99.90;;;;;;5031936;28;20217;-88
2024/04/07 01:21:39;;;;;;;5.95;2.70;;;15.90;99.90;;;;;;5031387;28;20222;-88
2024/04/07 01:24:07;;;;;;;6.88;2.83;;;15.90;99.90;;;;;;5031427;28;20554;-88
2024/04/07 01:26:34;;;;;;;3.33;2.50;;;15.80;99.90;;;;;;5030909;28;20706;-88
2024/04/07 01:29:00;;;;;;;3.88;2.65;;;15.80;99.90;;;;;;5034452;28;20293;-88
2024/04/07 01:31:27;;;;;;;5.22;2.72;;;15.80;99.90;;;;;;5029144;28;20230;-88
2024/04/07 01:33:53;;;;;;;5.07;3.05;;;15.80;99.90;;;;;;5031648;28;20228;-88
2024/04/07 01:36:20;;;;;;;7.03;3.03;;;15.80;99.90;;;;;;5031189;28;20198;-88
2024/04/07 01:38:46;;;;;;;6.68;3.17;;;15.80;99.90;;;;;;5031836;28;20225;-87
2024/04/07 01:41:14;;;;;;;5.43;3.00;;;15.80;99.90;;;;;;5031495;28;20738;-88
2024/04/07 01:43:40;;;;;;;3.83;2.95;;;15.80;99.90;;;;;;5029186;28;20668;-88
2024/04/07 01:46:07;;;;;;;3.28;2.63;;;15.60;99.90;;;;;;5031461;28;20220;-88
2024/04/07 01:48:33;;;;;;;5.00;3.00;;;15.70;99.90;;;;;;5031561;28;20198;-87
2024/04/07 01:51:00;;;;;;;4.28;2.65;;;15.70;99.90;;;;;;5029144;28;20233;-88
2024/04/07 01:53:25;;;;;;;4.43;2.55;;;15.80;99.90;;;;;;5031601;28;20218;-88
2024/04/07 01:55:53;;;;;;;6.60;2.80;;;15.70;99.90;;;;;;5029277;28;20668;-88
2024/04/07 01:58:20;;;;;;;3.40;2.50;;;15.70;99.90;;;;;;5032459;28;20625;-89
2024/04/07 02:00:47;;;;;;;3.00;2.42;;;15.70;99.90;;;;;;5037529;28;20261;-88
2024/04/07 02:03:12;;;;;;;3.53;2.78;;;15.80;99.90;;;;;;5033958;28;20683;-88
2024/04/07 02:05:40;;;;;;;4.72;2.40;;;15.80;99.90;;;;;;5031744;28;20202;-88
2024/04/07 02:08:06;;;;;;;4.18;2.60;;;15.80;99.90;;;;;;5030866;28;20665;-88
2024/04/07 02:10:33;;;;;;;5.57;2.42;;;15.80;99.90;;;;;;5034768;28;20223;-88
2024/04/07 02:12:58;;;;;;;4.97;2.60;;;15.80;99.90;;;;;;5034755;28;20218;-88
2024/04/07 02:15:27;;;;;;;3.72;2.50;;;15.70;99.90;;;;;;5034724;28;20276;-88
2024/04/07 02:17:52;;;;;;;4.25;2.45;;;15.70;99.90;;;;;;5035099;28;20199;-87
2024/04/07 02:20:20;;;;;;;5.55;2.63;;;15.70;99.90;;;;;;5034018;28;20228;-87
2024/04/07 02:22:45;;;;;;;2.97;2.15;;;15.70;99.90;;;;;;5029832;28;20238;-88
2024/04/07 02:25:12;;;;;;;3.08;2.10;;;15.70;99.90;;;;;;5030784;28;20303;-88
2024/04/07 02:27:39;;;;;;;4.97;2.75;;;15.80;99.90;;;;;;5038598;28;20210;-88
2024/04/07 02:30:08;;;;;;;5.18;2.78;;;15.70;99.90;;;;;;5034700;28;20209;-87
2024/04/07 02:32:35;;;;;;;3.65;2.28;;;15.70;99.90;;;;;;5027190;28;20237;-88
2024/04/07 02:35:03;;;;;;;5.90;2.38;;;15.70;99.90;;;;;;5034532;28;20234;-88
2024/04/07 02:37:29;;;;;;;3.88;2.42;;;15.60;99.90;;;;;;5029476;28;20214;-88
2024/04/07 02:39:56;;;;;;;5.07;2.45;;;15.60;99.90;;;;;;5032941;28;20620;-88
2024/04/07 02:42:22;;;;;;;6.85;2.83;;;15.40;99.90;;;;;;5030852;28;20222;-88
2024/04/07 06:51:57;;;;;;;8.23;1.70;;;16.40;99.90;;;;;;5032934;28;20222;-90
2024/04/07 06:54:23;;;;;;;3.78;1.50;;;16.70;99.90;;;;;;5035832;28;20214;-88
2024/04/07 06:56:50;;;;;;;3.72;1.40;;;16.80;99.90;;;;;;5033976;28;20228;-88
2024/04/07 06:59:15;;;;;;;7.88;1.50;;;17.00;99.90;;;;;;5034482;28;20206;-88
2024/04/07 07:01:42;;;;;;;5.93;1.60;;;17.20;99.90;;;;;;5037354;28;20212;-87
2024/04/07 07:04:08;;;;;;;4.57;1.58;;;17.50;99.90;;;;;;5045814;28;20199;-88
2024/04/07 07:06:35;;;;;;;4.20;1.52;;;17.60;99.90;;;;;;5034599;28;20315;-87
2024/04/07 07:09:02;;;;;;;7.40;1.85;;;17.90;99.90;;;;;;5034664;28;20688;-88
2024/04/07 07:11:29;;;;;;;7.70;1.70;;;18.10;99.90;;;;;;5034687;28;20656;-91
2024/04/07 07:13:55;;;;;;;7.78;1.70;;;18.30;99.90;;;;;;5034560;28;20234;-90
2024/04/07 07:16:22;;;;;;;3.40;1.33;;;18.50;99.90;;;;;;5044565;28;20340;-87
2024/04/07 07:18:48;;;;;;;5.88;1.45;;;18.80;99.90;;;;;;5039657;28;20206;-90
2024/04/07 07:21:14;;;;;;;4.80;1.40;;;19.10;99.70;;;;;;5032897;28;20210;-89
2024/04/07 07:23:40;;;;;;;6.28;1.50;;;19.30;99.40;;;;;;5034643;28;20218;-89
2024/04/07 07:26:08;;;;;;;8.38;1.80;;;19.40;99.40;;;;;;5029011;28;20236;-88
2024/04/07 07:28:35;;;;;;;4.95;1.42;;;19.60;99.10;;;;;;5034632;28;20628;-89
2024/04/07 07:31:01;;;;;;;10.82;1.90;;;19.70;98.90;;;;;;5034789;28;20202;-89
2024/04/07 07:33:27;;;;;;;7.40;2.03;;;19.80;98.70;;;;;;5033546;28;20704;-89
2024/04/07 07:35:54;;;;;;;7.97;1.55;;;19.80;98.80;;;;;;5034026;28;20317;-90
2024/04/07 07:38:22;;;;;;;7.45;1.45;;;20.00;98.30;;;;;;5034483;28;20202;-89
2024/04/07 07:40:49;;;;;;;5.97;1.60;;;20.00;98.00;;;;;;5034168;28;20210;-90
2024/04/07 07:43:16;;;;;;;3.83;1.35;;;20.20;98.10;;;;;;5034495;28;20214;-89
2024/04/07 07:45:47;;;;;;;5.95;1.55;;;20.40;97.60;;;;;;5034124;28;20244;-88
2024/04/07 07:48:13;;;;;;;5.40;1.42;;;20.60;97.40;;;;;;5032474;28;20717;-87
2024/04/07 07:50:41;;;;;;;8.45;1.50;;;20.70;97.30;;;;;;5033555;28;20203;-90
2024/04/07 07:53:07;;;;;;;4.82;1.38;;;20.70;97.00;;;;;;5033586;28;20260;-90
2024/04/07 07:55:34;;;;;;;6.97;1.83;;;20.80;97.20;;;;;;5033651;28;20210;-91
2024/04/07 07:58:01;;;;;;;6.82;1.52;;;20.90;97.00;;;;;;5034779;28;20297;-92
2024/04/07 08:00:29;;;;;;;6.90;1.75;;;21.00;96.80;;;;;;5039816;28;20216;-91
2024/04/07 08:02:55;;;;;;;5.35;1.20;;;21.00;96.80;;;;;;5042936;28;20214;-91
2024/04/07 08:05:23;;;;;;;3.67;1.05;;;21.10;96.40;;;;;;5034696;28;20201;-90
2024/04/07 08:07:49;;;;;;;8.32;2.05;;;21.10;96.50;;;;;;5034597;28;20237;-90
2024/04/07 08:10:16;;;;;;;6.97;1.63;;;21.20;96.70;;;;;;5035291;28;20575;-90
2024/04/07 08:12:43;;;;;;;11.23;1.80;;;21.40;96.00;;;;;;5056160;28;20289;-91
2024/04/07 08:15:14;;;;;;;6.80;1.75;;;21.40;96.10;;;;;;5046773;28;20276;-91
2024/04/07 08:17:42;;;;;;;7.25;1.50;;;21.40;96.20;;;;;;5033019;28;20888;-91
2024/04/07 08:20:09;;;;;;;6.90;1.63;;;21.40;96.00;;;;;;5033521;28;20218;-91
2024/04/07 08:22:36;;;;;;;6.03;1.70;;;21.30;96.30;;;;;;5034022;28;20285;-91
2024/04/07 08:25:05;;;;;;;5.35;1.30;;;21.40;96.70;;;;;;5033543;28;20667;-91
2024/04/07 08:27:32;;;;;;;8.68;1.63;;;21.40;96.50;;;;;;5033579;28;20731;-90
2024/04/07 08:29:59;;;;;;;11.43;2.10;;;21.50;96.50;;;;;;5033147;28;20849;-91
2024/04/07 08:32:38;;;;;;;12.98;1.58;;;21.50;96.60;;;;;;5036431;28;20237;-91
2024/04/07 08:35:07;;;;;;;4.93;1.42;;;21.40;96.60;;;;;;5032579;28;20631;-91
2024/04/07 08:37:32;;;;;;;8.85;1.45;;;21.50;96.50;;;;;;5039844;28;20222;-90
2024/04/07 08:39:59;;;;;;;9.52;1.92;;;21.60;95.90;;;;;;5033471;28;20644;-91
2024/04/07 08:42:27;;;;;;;4.45;1.60;;;21.60;95.80;;;;;;5033952;28;20301;-91
2024/04/07 08:44:56;;;;;;;7.97;1.45;;;21.50;95.70;;;;;;5031084;28;20217;-92
2024/04/07 08:47:24;;;;;;;12.52;1.70;;;21.50;96.00;;;;;;5034521;28;20658;-92
2024/04/07 08:49:53;;;;;;;6.22;1.40;;;21.40;95.90;;;;;;5031955;28;20221;-92
2024/04/07 08:52:22;;;;;;;5.80;1.40;;;21.40;96.20;;;;;;5036922;28;20291;-91
2024/04/07 08:54:49;;;;;;;5.75;1.30;;;21.40;96.10;;;;;;5033819;28;20621;-91
2024/04/07 08:57:15;;;;;;;5.60;1.90;;;21.50;96.50;;;;;;5033065;28;20329;-92
2024/04/07 08:59:45;;;;;;;4.82;1.50;;;21.50;96.40;;;;;;5027812;28;20214;-93
2024/04/07 09:02:13;;;;;;;5.22;1.63;;;21.60;96.10;;;;;;5034539;28;20683;-92
2024/04/07 09:04:41;;;;;;;7.55;1.48;;;21.60;96.20;;;;;;5035271;28;20241;-93
2024/04/07 09:07:07;;;;;;;9.73;1.50;;;21.80;95.90;;;;;;5035213;28;20233;-94
2024/04/07 09:09:36;;;;;;;4.88;1.38;;;21.90;96.10;;;;;;5036134;28;20289;-94
2024/04/07 09:12:02;;;;;;;7.53;1.30;;;22.00;95.70;;;;;;5036054;28;20237;-93
2024/04/07 09:14:32;;;;;;;5.93;1.30;;;22.10;95.50;;;;;;5034507;28;20348;-89
2024/04/07 09:17:03;;;;;;;7.72;1.92;;;22.30;95.60;;;;;;5023941;28;20232;-91
2024/04/07 09:19:31;;;;;;;9.18;1.60;;;22.40;95.60;;;;;;5027153;28;20206;-91
2024/04/07 09:21:57;;;;;;;5.47;1.88;;;22.50;95.10;;;;;;5032618;28;20300;-90
2024/04/07 09:24:25;;;;;;;6.32;1.70;;;22.60;94.90;;;;;;5033118;28;20651;-91
2024/04/07 09:26:55;;;;;;;6.35;1.58;;;22.70;95.00;;;;;;5030662;28;20273;-92
2024/04/07 09:29:23;;;;;;;8.25;1.52;;;22.90;94.60;;;;;;5028623;28;20300;-91
2024/04/07 09:31:49;;;;;;;7.97;1.70;;;23.00;94.10;;;;;;5034328;28;20232;-91
2024/04/07 09:34:16;;;;;;;6.07;1.77;;;23.10;93.90;;;;;;5032986;28;20313;-91
2024/04/07 09:36:42;;;;;;;8.52;2.00;;;23.00;94.20;;;;;;5033118;28;20238;-91
2024/04/07 09:39:10;;;;;;;3.17;1.55;;;22.90;94.80;;;;;;5033845;28;20213;-92
2024/04/07 09:41:36;;;;;;;2.85;1.33;;;22.90;94.80;;;;;;5034533;28;20684;-86
2024/04/07 09:44:06;;;;;;;5.28;2.15;;;23.00;94.40;;;;;;5030193;28;20548;-85
2024/04/07 09:46:37;;;;;;;4.47;1.40;;;23.00;94.00;;;;;;5027783;28;20230;-85
2024/04/07 09:49:08;;;;;;;7.93;1.77;;;23.10;93.50;;;;;;5032935;28;20206;-88
2024/04/07 09:51:40;;;;;;;4.97;1.50;;;23.10;93.70;;;;;;5029673;28;20623;-86
2024/04/07 09:54:16;;;;;;;7.60;1.50;;;23.10;93.80;;;;;;5032944;28;20210;-86
2024/04/07 09:56:43;;;;;;;6.18;2.17;;;23.00;94.20;;;;;;5035674;28;20232;-89
2024/04/07 09:59:13;;;;;;;6.97;1.48;;;23.00;94.20;;;;;;5034132;28;20206;-89
2024/04/07 10:01:39;;;;;;;6.63;2.08;;;22.90;93.70;;;;;;5036936;28;20220;-91
2024/04/07 10:04:08;;;;;;;4.60;1.50;;;22.90;94.30;;;;;;5035563;28;20718;-90
2024/04/07 10:06:35;;;;;;;5.15;1.50;;;23.10;94.30;;;;;;5044687;28;20230;-90
2024/04/07 10:09:03;;;;;;;7.32;1.65;;;23.20;93.60;;;;;;5037682;28;20690;-87
2024/04/07 10:11:29;;;;;;;8.93;1.83;;;23.30;94.00;;;;;;5034479;28;20198;-87
2024/04/07 10:13:56;;;;;;;8.40;1.90;;;23.40;94.10;;;;;;5030025;28;20769;-89
2024/04/07 10:16:24;;;;;;;9.55;2.00;;;23.40;94.10;;;;;;5041785;28;20270;-89
2024/04/07 10:18:51;;;;;;;7.90;1.92;;;23.50;93.60;;;;;;5059176;28;20201;-89
2024/04/07 10:21:17;;;;;;;6.78;1.50;;;23.60;94.00;;;;;;5035420;28;20210;-91
2024/04/07 10:23:44;;;;;;;6.97;1.60;;;23.60;93.40;;;;;;5036079;28;20226;-90
2024/04/07 10:26:10;;;;;;;6.72;2.08;;;23.60;93.30;;;;;;5042301;28;20230;-89
2024/04/07 10:28:48;;;;;;;8.55;1.55;;;23.70;93.70;;;;;;5038404;28;20205;-90
2024/04/07 10:31:22;;;;;;;5.38;1.55;;;23.80;93.50;;;;;;5033319;28;20225;-92
2024/04/07 10:33:51;;;;;;;10.77;1.83;;;24.00;93.20;;;;;;5038337;28;20309;-90
2024/04/07 10:36:20;;;;;;;5.60;2.03;;;24.20;93.10;;;;;;5034692;28;20253;-92
2024/04/07 10:38:49;;;;;;;5.07;1.60;;;24.40;92.80;;;;;;5036413;28;20248;-91
2024/04/07 10:41:17;;;;;;;6.40;1.63;;;24.40;92.30;;;;;;5037275;28;20206;-90
2024/04/07 10:43:45;;;;;;;6.47;1.77;;;24.50;92.40;;;;;;5036275;28;20209;-90
2024/04/07 10:46:11;;;;;;;7.13;1.73;;;24.50;92.10;;;;;;5037537;28;20249;-89
2024/04/07 10:48:38;;;;;;;5.63;1.55;;;24.60;92.00;;;;;;5029447;28;20218;-90
2024/04/07 10:51:06;;;;;;;9.88;1.60;;;24.60;93.10;;;;;;5048580;28;20210;-89
2024/04/07 10:53:33;;;;;;;6.97;1.80;;;24.80;92.30;;;;;;5026201;28;20234;-91
2024/04/07 10:56:00;;;;;;;8.80;1.83;;;24.80;91.80;;;;;;5037126;28;20231;-90
2024/04/07 10:58:27;;;;;;;7.70;1.60;;;25.00;91.80;;;;;;5032362;28;20199;-90
2024/04/07 11:00:53;;;;;;;7.05;1.40;;;25.10;91.70;;;;;;5037858;28;20217;-91
2024/04/07 11:03:21;;;;;;;8.32;1.75;;;25.20;91.20;;;;;;5053247;28;20217;-91
2024/04/07 11:05:48;;;;;;;9.85;2.40;;;25.20;91.20;;;;;;5064651;28;20233;-92
2024/04/07 11:08:33;;;;;;;6.80;1.80;;;25.20;91.60;;;;;;5054061;28;20236;-92
2024/04/07 11:11:02;;;;;;;5.53;1.73;;;25.20;91.30;;;;;;5036651;28;20647;-92
2024/04/07 11:13:30;;;;;;;10.77;1.75;;;25.20;92.40;;;;;;5033427;28;20233;-92
2024/04/07 11:15:59;;;;;;;3.75;1.63;;;25.30;91.70;;;;;;5035508;28;20234;-91
2024/04/07 11:18:26;;;;;;;8.05;2.00;;;25.40;91.30;;;;;;5036723;28;20671;-91
2024/04/07 11:20:53;;;;;;;4.78;1.67;;;25.50;89.70;;;;;;5032120;28;20237;-90
2024/04/07 11:23:22;;;;;;;6.15;1.52;;;25.60;90.20;;;;;;5032255;28;20285;-91
2024/04/07 11:25:48;;;;;;;5.28;1.65;;;25.80;91.00;;;;;;5032891;28;20234;-91
2024/04/07 11:28:17;;;;;;;6.28;1.80;;;26.00;90.40;;;;;;5033679;28;20256;-92
2024/04/07 11:30:45;;;;;;;11.57;1.77;;;26.10;89.60;;;;;;5028739;28;20271;-92
2024/04/07 11:33:12;;;;;;;4.13;1.42;;;26.10;90.20;;;;;;5034708;28;20226;-92
2024/04/07 11:35:39;;;;;;;5.07;2.13;;;26.10;90.10;;;;;;5035341;28;20293;-93
2024/04/07 11:38:06;;;;;;;6.10;2.13;;;26.20;88.80;;;;;;5039998;28;20195;-94
2024/04/07 11:40:33;;;;;;;9.20;2.13;;;26.30;89.90;;;;;;5032459;28;20294;-92
2024/04/07 11:43:00;;;;;;;7.30;1.45;;;26.40;89.20;;;;;;5040903;28;20206;-93
2024/04/07 11:45:26;;;;;;;5.78;1.58;;;26.60;89.10;;;;;;5032583;28;20202;-92
2024/04/07 11:47:53;;;;;;;9.48;1.90;;;26.90;88.70;;;;;;5033921;28;20203;-93
2024/04/07 11:50:19;;;;;;;9.15;2.40;;;27.00;87.50;;;;;;5033446;28;20218;-93
2024/04/07 11:52:46;;;;;;;7.22;1.80;;;27.00;87.50;;;;;;5026873;28;20637;-93
2024/04/07 11:55:12;;;;;;;6.72;1.63;;;27.30;87.80;;;;;;5035059;28;20292;-92
2024/04/07 11:57:40;;;;;;;7.25;1.67;;;27.40;86.10;;;;;;5030290;28;20280;-92
2024/04/07 12:00:07;;;;;;;8.07;1.80;;;27.40;85.60;;;;;;5034514;28;20212;-91
2024/04/07 12:02:34;;;;;;;7.72;1.77;;;27.10;86.90;;;;;;5031874;28;20228;-92
2024/04/07 12:05:01;;;;;;;9.50;1.52;;;27.20;84.10;;;;;;5033877;28;20218;-91
2024/04/07 12:07:28;;;;;;;6.65;2.03;;;26.90;85.20;;;;;;5029026;28;20312;-92
2024/04/07 12:09:54;;;;;;;10.30;1.95;;;27.10;86.60;;;;;;5033888;28;20214;-92
2024/04/07 12:12:20;;;;;;;4.78;1.65;;;27.40;84.90;;;;;;5033458;28;20218;-92
2024/04/07 12:14:48;;;;;;;8.00;1.50;;;27.80;85.40;;;;;;5033955;28;20711;-92
2024/04/07 12:17:15;;;;;;;4.90;1.77;;;28.20;83.60;;;;;;5035570;28;20286;-92
2024/04/07 12:19:40;;;;;;;9.20;2.03;;;28.60;84.50;;;;;;5033535;28;20626;-92
2024/04/07 12:22:09;;;;;;;10.00;1.98;;;29.20;83.60;;;;;;5031982;28;20293;-92
2024/04/07 12:24:35;;;;;;;7.78;1.70;;;29.60;81.50;;;;;;5040271;28;20206;-92
2024/04/07 12:27:02;;;;;;;9.02;2.10;;;29.80;79.20;;;;;;5036396;28;20239;-92
2024/04/07 12:29:28;;;;;;;5.35;1.92;;;29.90;78.00;;;;;;5036638;28;20293;-92
2024/04/07 12:31:57;;;;;;;4.35;1.70;;;29.80;77.90;;;;;;5037102;28;20241;-91
2024/04/07 12:34:23;;;;;;;6.68;1.90;;;29.60;83.20;;;;;;5031876;28;20225;-91
2024/04/07 12:36:49;;;;;;;6.22;1.75;;;29.70;82.30;;;;;;5031659;28;20268;-91
2024/04/07 12:39:16;;;;;;;7.07;2.10;;;29.70;80.60;;;;;;5026508;28;20220;-91
2024/04/07 12:41:44;;;;;;;4.53;2.10;;;29.40;82.40;;;;;;5033136;28;20198;-91
2024/04/07 12:44:11;;;;;;;9.07;2.10;;;29.60;77.60;;;;;;5028413;28;20288;-93
2024/04/07 12:46:39;;;;;;;7.32;1.83;;;29.50;77.00;;;;;;5033272;28;20229;-92
2024/04/07 12:49:06;;;;;;;3.72;1.80;;;29.60;78.10;;;;;;5032929;28;20218;-92
2024/04/07 12:51:33;;;;;;;11.48;2.15;;;29.10;77.30;;;;;;5033942;28;20734;-92
2024/04/07 12:53:59;;;;;;;10.02;1.70;;;29.20;78.70;;;;;;5037189;28;20778;-93
2024/04/07 12:56:26;;;;;;;4.85;2.30;;;29.10;81.90;;;;;;5044402;28;20237;-94
2024/04/07 12:58:52;;;;;;;6.70;2.40;;;29.10;83.80;;;;;;5026988;28;20779;-93
2024/04/07 13:01:19;;;;;;;4.80;1.80;;;29.20;83.90;;;;;;5030748;28;20218;-93
2024/04/07 13:03:46;;;;;;;4.93;2.33;;;29.10;82.80;;;;;;5029330;28;20204;-93
2024/04/07 13:06:14;;;;;;;10.10;2.10;;;29.00;82.50;;;;;;5032563;28;20241;-93
2024/04/07 13:08:40;;;;;;;6.50;1.95;;;28.70;80.60;;;;;;5030736;28;20292;-93
2024/04/07 13:11:07;;;;;;;8.07;2.03;;;28.80;81.50;;;;;;5032338;28;20783;-93
2024/04/07 13:13:34;;;;;;;5.75;2.13;;;28.40;83.20;;;;;;5033083;28;20232;-93
2024/04/07 13:16:01;;;;;;;7.90;2.60;;;28.40;87.40;;;;;;5033865;28;20718;-93
2024/04/07 13:18:27;;;;;;;5.03;2.40;;;28.50;86.10;;;;;;5031671;28;20213;-93
2024/04/07 13:20:54;;;;;;;9.35;2.03;;;28.60;83.00;;;;;;5032482;28;20659;-92
2024/04/07 13:23:22;;;;;;;8.55;2.08;;;28.70;82.30;;;;;;5042926;28;20227;-93
2024/04/07 13:25:49;;;;;;;7.38;2.13;;;29.00;79.80;;;;;;5045296;28;20255;-93
2024/04/07 13:28:15;;;;;;;4.88;2.10;;;29.10;82.40;;;;;;5052822;28;20261;-93
2024/04/07 13:30:45;;;;;;;8.73;2.00;;;29.10;78.30;;;;;;5052810;28;20237;-92
2024/04/07 13:33:12;;;;;;;4.72;1.70;;;29.20;81.70;;;;;;5047281;28;20210;-93
2024/04/07 13:35:39;;;;;;;10.15;2.92;;;29.30;83.30;;;;;;5043050;28;20205;-94
2024/04/07 13:38:05;;;;;;;5.13;1.95;;;29.30;83.90;;;;;;5047237;28;20217;-95
2024/04/07 13:40:33;;;;;;;7.38;2.30;;;29.90;84.40;;;;;;5042810;28;20206;-93
2024/04/07 13:42:59;;;;;;;10.95;2.17;;;29.60;78.80;;;;;;5035442;28;20292;-93
2024/04/07 13:45:26;;;;;;;4.93;2.00;;;29.40;79.20;;;;;;5035513;28;20248;-93
2024/04/07 13:47:52;;;;;;;11.15;2.40;;;29.60;82.70;;;;;;5034865;28;20237;-93
2024/04/07 13:50:20;;;;;;;9.98;2.47;;;30.00;81.60;;;;;;5048228;28;20200;-92
2024/04/07 13:52:48;;;;;;;8.02;2.10;;;29.50;77.90;;;;;;5055321;28;20206;-92
2024/04/07 13:55:15;;;;;;;13.82;2.30;;;29.80;82.30;;;;;;5041895;28;20272;-92
2024/04/07 13:57:42;;;;;;;15.60;2.97;;;30.00;76.70;;;;;;5037517;28;20289;-91
2024/04/07 14:00:11;;;;;;;7.68;2.00;;;29.90;76.90;;;;;;5037222;28;20577;-91
2024/04/07 14:02:36;;;;;;;7.25;2.22;;;29.90;78.00;;;;;;5035755;28;20213;-90
2024/04/07 14:05:04;;;;;;;9.90;2.28;;;30.00;77.60;;;;;;5036360;28;20562;-90
2024/04/07 14:07:30;;;;;;;5.18;1.88;;;29.70;77.80;;;;;;5036942;28;20309;-91
2024/04/07 14:09:57;;;;;;;12.15;2.28;;;30.10;76.70;;;;;;5037730;28;20235;-91
2024/04/07 14:12:23;;;;;;;6.00;1.83;;;30.50;81.90;;;;;;5036280;28;20630;-90
2024/04/07 14:14:51;;;;;;;8.70;2.45;;;31.30;76.60;;;;;;5034933;28;20316;-90
2024/04/07 14:17:17;;;;;;;7.68;2.15;;;31.80;75.80;;;;;;5033949;28;20961;-90
2024/04/07 14:19:44;;;;;;;7.63;2.10;;;32.10;73.40;;;;;;5035846;28;20223;-90
2024/04/07 14:22:10;;;;;;;9.18;2.30;;;32.40;71.40;;;;;;5034634;28;20205;-90
2024/04/07 14:24:37;;;;;;;10.35;2.47;;;32.30;71.30;;;;;;5031528;28;20197;-89
2024/04/07 14:27:06;;;;;;;6.75;2.22;;;32.40;70.20;;;;;;5035137;28;20609;-90
2024/04/07 14:29:33;;;;;;;6.93;1.98;;;32.30;70.30;;;;;;5030767;28;20226;-90
2024/04/07 14:32:01;;;;;;;8.00;2.33;;;32.40;71.90;;;;;;5033617;28;20291;-89
2024/04/07 14:34:28;;;;;;;10.88;2.45;;;32.70;74.50;;;;;;5031780;28;20236;-90
2024/04/07 14:36:54;;;;;;;8.00;1.85;;;32.80;72.40;;;;;;5036982;28;20250;-90
2024/04/07 14:39:21;;;;;;;9.65;2.50;;;33.10;73.10;;;;;;5036053;28;20816;-89
2024/04/07 14:41:47;;;;;;;6.05;2.55;;;33.10;73.70;;;;;;5040306;28;20578;-90
2024/04/07 14:44:14;;;;;;;9.88;2.00;;;33.10;70.20;;;;;;5053253;28;20332;-91
2024/04/07 14:46:40;;;;;;;10.85;2.72;;;33.20;69.70;;;;;;5056089;28;20236;-92
2024/04/07 14:49:13;;;;;;;10.27;2.40;;;33.30;71.70;;;;;;5049730;28;20208;-91
2024/04/07 14:51:39;;;;;;;12.38;2.72;;;33.30;70.30;;;;;;5056354;28;20221;-91
2024/04/07 14:54:06;;;;;;;8.65;2.67;;;33.10;69.20;;;;;;5057134;28;20279;-91
2024/04/07 14:56:33;;;;;;;7.72;2.45;;;32.80;69.90;;;;;;5056639;28;20380;-91
2024/04/07 14:59:00;;;;;;;6.45;2.45;;;32.60;70.30;;;;;;5056152;28;20383;-91
2024/04/07 15:01:25;;;;;;;12.27;2.33;;;32.30;71.50;;;;;;5056127;28;20230;-91
2024/04/07 15:03:55;;;;;;;7.70;2.63;;;32.00;72.70;;;;;;5056612;28;20201;-90
2024/04/07 15:06:23;;;;;;;7.80;2.42;;;31.60;72.20;;;;;;5050946;28;20238;-92
2024/04/07 15:08:50;;;;;;;4.90;2.17;;;31.20;72.10;;;;;;5036535;28;20237;-91
2024/04/07 15:11:19;;;;;;;4.85;2.50;;;31.00;72.50;;;;;;5036516;28;20229;-92
2024/04/07 15:13:46;;;;;;;8.60;2.22;;;30.70;74.80;;;;;;5036117;28;20587;-92
2024/04/07 15:43:24;;;;;;;9.18;2.65;;;30.10;74.70;;;;;;5036124;28;20782;-90
2024/04/07 15:45:50;;;;;;;9.75;2.47;;;30.00;75.60;;;;;;5039184;28;20233;-89
2024/04/07 15:48:17;;;;;;;8.63;2.22;;;29.80;76.40;;;;;;5037766;28;20650;-91
2024/04/07 15:50:43;;;;;;;10.45;2.03;;;29.60;75.30;;;;;;5032099;28;20224;-92
2024/04/07 15:53:10;;;;;;;11.88;2.53;;;29.50;78.80;;;;;;5033203;28;20194;-90
2024/04/07 15:55:36;;;;;;;8.95;2.35;;;29.40;76.20;;;;;;5036862;28;20233;-91
2024/04/07 15:58:05;;;;;;;7.68;2.35;;;29.30;76.00;;;;;;5038087;28;20243;-90
2024/04/07 16:00:32;;;;;;;9.63;2.10;;;29.30;75.70;;;;;;5031650;28;20245;-90
2024/04/07 16:02:59;;;;;;;17.20;2.70;;;29.30;75.40;;;;;;5034326;28;20232;-90
2024/04/07 16:05:25;;;;;;;9.45;2.22;;;29.20;76.20;;;;;;5034397;28;20316;-90
2024/04/07 16:07:52;;;;;;;10.98;2.70;;;29.20;75.80;;;;;;5038336;28;20205;-91
2024/04/07 16:10:18;;;;;;;10.80;2.47;;;29.10;75.60;;;;;;5035311;28;20216;-91
2024/04/07 16:12:45;;;;;;;9.88;2.67;;;29.10;76.20;;;;;;5035454;28;20292;-91
2024/04/07 16:15:11;;;;;;;9.48;2.65;;;29.00;77.00;;;;;;5033107;28;20234;-92
2024/04/07 16:17:40;;;;;;;7.97;2.20;;;29.00;75.60;;;;;;5036968;28;20204;-91
2024/04/07 16:20:07;;;;;;;11.18;2.38;;;28.80;74.70;;;;;;5029755;28;20272;-90
2024/04/07 16:22:34;;;;;;;11.93;3.13;;;28.60;74.80;;;;;;5030172;28;20210;-91
2024/04/07 16:25:00;;;;;;;10.15;2.40;;;28.20;74.30;;;;;;5030065;28;20222;-91
2024/04/07 16:27:27;;;;;;;9.52;2.63;;;27.90;80.90;;;;;;5036925;28;20209;-91
2024/04/07 16:29:53;;;;;;;12.88;2.25;;;27.80;80.20;;;;;;5035549;28;20213;-90
2024/04/07 16:32:19;;;;;;;8.50;2.50;;;27.60;82.40;;;;;;5032386;28;20288;-90
2024/04/07 16:34:47;;;;;;;16.10;2.83;;;27.40;82.60;;;;;;5033347;28;20240;-91
2024/04/07 16:37:14;;;;;;;14.07;2.92;;;27.20;80.70;;;;;;5037184;28;20548;-90
2024/04/07 16:39:40;;;;;;;10.00;2.65;;;26.90;84.00;;;;;;5034955;28;20234;-90
2024/04/07 16:42:07;;;;;;;15.18;2.80;;;26.70;84.80;;;;;;5033170;28;20221;-89
2024/04/07 16:44:35;;;;;;;10.45;2.40;;;26.60;85.00;;;;;;5037505;28;20216;-90
2024/04/07 16:47:01;;;;;;;9.13;2.50;;;26.40;83.70;;;;;;5036440;28;20236;-89
2024/04/07 16:49:27;;;;;;;9.48;2.15;;;26.30;84.50;;;;;;5035004;28;20298;-91
2024/04/07 16:51:57;;;;;;;12.85;2.58;;;26.10;85.80;;;;;;5031598;28;20233;-90
2024/04/07 16:54:23;;;;;;;6.60;2.40;;;26.00;86.30;;;;;;5032035;28;20646;-89
2024/04/07 16:56:52;;;;;;;9.25;2.38;;;25.90;87.00;;;;;;5027956;28;20253;-91
2024/04/07 16:59:18;;;;;;;15.10;2.33;;;25.70;87.60;;;;;;5032672;28;20216;-88
2024/04/07 17:01:45;;;;;;;7.78;2.30;;;25.50;90.40;;;;;;5029813;28;20198;-92
2024/04/07 17:04:12;;;;;;;10.52;2.58;;;25.40;91.00;;;;;;5027551;28;20209;-90
2024/04/07 17:06:38;;;;;;;15.70;2.65;;;25.20;90.60;;;;;;5026842;28;20222;-91
2024/04/07 17:09:09;;;;;;;13.02;2.70;;;25.10;91.20;;;;;;5031944;28;20225;-88
2024/04/07 17:11:35;;;;;;;9.98;2.60;;;24.90;91.40;;;;;;5028841;28;20214;-87
2024/04/07 17:14:03;;;;;;;12.98;2.97;;;24.80;91.60;;;;;;5032765;28;20228;-92
2024/04/07 17:16:31;;;;;;;12.52;2.92;;;24.60;91.40;;;;;;5033656;28;20284;-89
2024/04/07 17:18:58;;;;;;;14.98;2.80;;;24.50;91.00;;;;;;5030832;28;20339;-90